createdAt,value
2019-04-27T00:01:48.658Z,95113.75
2019-04-27T00:04:43.084Z,95114.02
2019-04-27T00:07:33.736Z,95113.25
2019-04-27T00:10:30.581Z,95106.65
2019-04-27T00:13:05.579Z,95103.60
2019-04-27T00:15:50.927Z,95110.22
2019-04-27T00:18:45.489Z,95104.84
2019-04-27T00:21:25.736Z,95104.84
2019-04-27T00:23:56.973Z,95107.98
2019-04-27T00:26:28.345Z,95095.25
2019-04-27T00:29:00.429Z,95099.55
2019-04-27T00:31:31.506Z,95103.37
2019-04-27T00:34:03.566Z,95103.37
2019-04-27T00:36:40.944Z,95102.27
2019-04-27T00:39:24.104Z,95102.27
2019-04-27T00:41:55.396Z,95100.37
2019-04-27T00:44:26.763Z,95106.64
2019-04-27T00:46:58.078Z,95103.08
2019-04-27T00:49:29.407Z,95103.08
2019-04-27T00:52:00.646Z,95096.92
2019-04-27T00:54:33.864Z,95099.29
2019-04-27T00:57:15.336Z,95107.90
2019-04-27T01:00:06.885Z,95099.89
2019-04-27T01:02:51.247Z,95102.45
2019-04-27T01:05:24.511Z,95102.45
2019-04-27T01:07:55.896Z,95096.23
2019-04-27T01:10:28.192Z,95093.29
2019-04-27T01:12:59.751Z,95091.27
2019-04-27T01:15:31.105Z,95086.54
2019-04-27T01:18:12.311Z,95082.69
2019-04-27T01:20:35.762Z,95078.63
2019-04-27T01:23:07.235Z,95079.22
2019-04-27T01:26:03.166Z,95076.59
2019-04-27T01:28:39.915Z,95080.47
2019-04-27T01:31:12.956Z,95085.70
2019-04-27T01:33:44.553Z,95078.50
2019-04-27T01:36:15.807Z,95079.50
2019-04-27T01:38:47.160Z,95078.53
2019-04-27T01:41:19.166Z,95072.18
2019-04-27T01:43:50.591Z,95072.18
2019-04-27T01:46:21.659Z,95070.24
2019-04-27T01:48:52.733Z,95068.24
2019-04-27T01:51:23.741Z,95069.58
2019-04-27T01:53:54.868Z,95068.48
2019-04-27T01:56:26.063Z,95065.20
2019-04-27T01:58:57.103Z,95062.82
2019-04-27T02:01:50.292Z,95062.66
2019-04-27T02:04:46.133Z,95069.59
2019-04-27T02:07:19.077Z,95063.72
2019-04-27T02:09:50.073Z,95065.08
2019-04-27T02:12:21.215Z,95063.47
2019-04-27T02:14:52.647Z,95065.16
2019-04-27T02:17:24.057Z,95060.84
2019-04-27T02:19:55.564Z,95056.86
2019-04-27T02:22:26.806Z,95061.74
2019-04-27T02:24:59.093Z,95063.55
2019-04-27T02:27:31.937Z,95056.98
2019-04-27T02:30:26.257Z,95056.64
2019-04-27T02:33:23.267Z,95057.20
2019-04-27T02:35:54.560Z,95056.59
2019-04-27T02:38:25.832Z,95051.13
2019-04-27T02:41:06.554Z,95058.05
2019-04-27T02:43:51.842Z,95051.17
2019-04-27T02:46:23.052Z,95051.45
2019-04-27T02:49:00.100Z,95050.97
2019-04-27T02:51:33.690Z,95046.03
2019-04-27T02:54:05.060Z,95041.13
2019-04-27T02:56:36.176Z,95042.75
2019-04-27T02:59:09.561Z,95038.86
2019-04-27T03:01:46.968Z,95045.59
2019-04-27T03:04:20.263Z,95037.25
2019-04-27T03:06:50.878Z,95040.63
2019-04-27T03:09:21.943Z,95040.11
2019-04-27T03:11:53.715Z,95040.27
2019-04-27T03:14:55.940Z,95038.00
2019-04-27T03:17:52.485Z,95036.53
2019-04-27T03:20:51.664Z,95027.72
2019-04-27T03:23:22.767Z,95037.03
2019-04-27T03:26:07.539Z,95033.59
2019-04-27T03:28:40.187Z,95038.03
2019-04-27T03:31:13.535Z,95029.84
2019-04-27T03:33:44.886Z,95031.79
2019-04-27T03:36:16.197Z,95019.50
2019-04-27T03:38:49.812Z,95019.17
2019-04-27T03:41:20.517Z,95013.59
2019-04-27T03:43:52.163Z,95017.88
2019-04-27T03:46:23.663Z,95014.63
2019-04-27T03:48:55.245Z,95024.08
2019-04-27T03:51:34.886Z,95027.22
2019-04-27T03:54:25.182Z,95025.23
2019-04-27T03:57:19.910Z,95023.10
2019-04-27T04:00:06.292Z,95025.03
2019-04-27T04:02:40.413Z,95029.13
2019-04-27T04:05:12.021Z,95026.81
2019-04-27T04:07:43.666Z,95029.06
2019-04-27T04:10:15.236Z,95030.38
2019-04-27T04:12:56.396Z,95024.42
2019-04-27T04:15:39.850Z,95027.17
2019-04-27T04:18:12.216Z,95024.39
2019-04-27T04:20:43.621Z,95025.94
2019-04-27T04:23:15.147Z,95016.14
2019-04-27T04:25:46.526Z,95010.25
2019-04-27T04:28:19.907Z,95013.54
2019-04-27T04:30:51.274Z,95016.73
2019-04-27T04:33:22.581Z,95018.76
2019-04-27T04:35:53.618Z,95012.53
2019-04-27T04:38:25.116Z,95011.29
2019-04-27T04:41:02.086Z,95010.36
2019-04-27T04:43:55.181Z,95018.50
2019-04-27T04:46:43.952Z,95019.13
2019-04-27T04:49:15.103Z,95019.13
2019-04-27T04:51:46.174Z,95014.84
2019-04-27T04:54:19.642Z,95009.44
2019-04-27T04:56:50.016Z,95007.16
2019-04-27T04:59:21.094Z,95005.77
2019-04-27T05:01:52.574Z,95007.73
2019-04-27T05:04:23.535Z,95005.02
2019-04-27T05:06:54.573Z,95005.02
2019-04-27T05:09:25.618Z,95008.52
2019-04-27T05:11:58.607Z,95004.17
2019-04-27T05:14:29.954Z,95001.39
2019-04-27T05:17:01.035Z,95001.39
2019-04-27T05:19:32.518Z,95000.57
2019-04-27T05:22:04.003Z,95005.50
2019-04-27T05:24:35.351Z,95005.50
2019-04-27T05:27:06.508Z,95001.93
2019-04-27T05:29:38.944Z,95001.93
2019-04-27T05:32:10.649Z,95004.63
2019-04-27T05:34:41.865Z,95001.69
2019-04-27T05:37:13.359Z,95000.16
2019-04-27T05:39:44.716Z,94999.70
2019-04-27T05:42:17.061Z,95006.84
2019-04-27T05:45:24.805Z,95007.05
2019-04-27T05:48:04.447Z,95006.05
2019-04-27T05:50:41.217Z,95006.88
2019-04-27T05:53:08.853Z,95006.97
2019-04-27T05:55:39.975Z,95006.97
2019-04-27T05:58:11.241Z,94998.31
2019-04-27T06:00:43.149Z,95001.52
2019-04-27T06:03:14.587Z,94998.73
2019-04-27T06:05:46.124Z,94994.48
2019-04-27T06:08:18.785Z,94996.66
2019-04-27T06:10:50.717Z,94997.80
2019-04-27T06:13:21.861Z,94998.36
2019-04-27T06:15:52.910Z,94992.28
2019-04-27T06:18:24.078Z,94993.86
2019-04-27T06:20:55.982Z,94990.34
2019-04-27T06:23:28.957Z,94993.11
2019-04-27T06:26:01.855Z,94991.30
2019-04-27T06:28:33.323Z,94982.98
2019-04-27T06:31:04.784Z,94985.05
2019-04-27T06:33:36.140Z,94973.03
2019-04-27T06:36:07.317Z,94980.73
2019-04-27T06:38:39.339Z,94979.65
2019-04-27T06:41:11.015Z,94977.89
2019-04-27T06:43:42.401Z,94978.96
2019-04-27T06:46:13.966Z,94980.80
2019-04-27T06:48:45.071Z,94979.53
2019-04-27T06:51:16.705Z,94976.92
2019-04-27T06:53:49.415Z,94971.75
2019-04-27T06:56:20.909Z,94977.05
2019-04-27T06:58:52.192Z,94979.42
2019-04-27T07:01:23.524Z,94975.28
2019-04-27T07:03:54.972Z,94975.97
2019-04-27T07:06:26.350Z,94970.48
2019-04-27T07:08:59.597Z,94966.71
2019-04-27T07:11:30.682Z,94957.63
2019-04-27T07:14:01.754Z,94968.97
2019-04-27T07:16:32.729Z,94958.59
2019-04-27T07:19:03.825Z,94961.20
2019-04-27T07:21:34.847Z,94963.73
2019-04-27T07:24:05.894Z,94965.60
2019-04-27T07:26:38.886Z,94966.92
2019-04-27T07:29:09.888Z,94954.96
2019-04-27T07:31:40.943Z,94969.34
2019-04-27T07:34:12.436Z,94970.39
2019-04-27T07:36:43.572Z,94964.08
2019-04-27T07:41:44.749Z,94949.39
2019-04-27T07:44:40.620Z,94953.98
2019-04-27T07:47:31.072Z,94954.47
2019-04-27T07:50:01.646Z,94951.88
2019-04-27T07:52:32.078Z,94946.92
2019-04-27T07:55:02.010Z,94937.91
2019-04-27T07:57:31.775Z,94944.86
2019-04-27T08:00:01.580Z,94946.57
2019-04-27T08:02:32.297Z,94941.88
2019-04-27T08:05:02.095Z,94937.56
2019-04-27T08:07:31.917Z,94930.80
2019-04-27T08:10:01.975Z,94930.22
2019-04-27T08:12:33.139Z,94920.68
2019-04-27T08:15:03.030Z,94924.19
2019-04-27T08:17:32.989Z,94920.31
2019-04-27T08:20:02.762Z,94928.59
2019-04-27T08:22:32.952Z,94923.59
2019-04-27T08:25:02.897Z,94917.02
2019-04-27T08:27:39.388Z,94908.62
2019-04-27T08:30:23.864Z,94912.84
2019-04-27T08:32:54.163Z,94907.36
2019-04-27T08:35:24.352Z,94915.16
2019-04-27T08:37:54.768Z,94907.82
2019-04-27T08:40:24.864Z,94908.67
2019-04-27T08:42:55.781Z,94909.80
2019-04-27T08:45:25.967Z,94905.89
2019-04-27T08:47:56.094Z,94902.25
2019-04-27T08:50:26.094Z,94898.27
2019-04-27T08:52:57.629Z,94888.52
2019-04-27T08:55:27.371Z,94884.55
2019-04-27T08:57:58.687Z,94877.98
2019-04-27T09:00:29.183Z,94869.02
2019-04-27T09:02:59.604Z,94868.80
2019-04-27T09:05:29.411Z,94863.65
2019-04-27T09:08:24.389Z,94862.65
2019-04-27T09:11:00.001Z,94860.58
2019-04-27T09:13:41.258Z,94851.23
2019-04-27T09:16:21.680Z,94848.91
2019-04-27T09:18:53.641Z,94845.77
2019-04-27T09:21:25.379Z,94836.78
2019-04-27T09:23:55.357Z,94837.17
2019-04-27T09:26:25.571Z,94829.57
2019-04-27T09:28:55.819Z,94821.40
2019-04-27T09:31:25.741Z,94820.76
2019-04-27T09:33:55.575Z,94817.73
2019-04-27T09:36:26.085Z,94811.05
2019-04-27T09:38:56.532Z,94807.84
2019-04-27T09:41:26.782Z,94804.44
2019-04-27T09:43:56.552Z,94800.48
2019-04-27T09:46:26.912Z,94787.65
2019-04-27T09:48:57.134Z,94788.27
2019-04-27T09:51:27.393Z,94780.91
2019-04-27T09:53:57.234Z,94776.59
2019-04-27T09:56:27.145Z,94769.23
2019-04-27T09:58:57.646Z,94761.67
2019-04-27T10:01:28.843Z,94756.63
2019-04-27T10:03:58.817Z,94749.77
2019-04-27T10:06:30.037Z,94744.94
2019-04-27T10:08:59.926Z,94733.70
2019-04-27T10:11:29.747Z,94731.23
2019-04-27T10:13:59.620Z,94726.06
2019-04-27T10:16:31.114Z,94720.11
2019-04-27T10:19:01.261Z,94711.31
2019-04-27T10:21:31.524Z,94707.60
2019-04-27T10:24:01.432Z,94713.02
2019-04-27T10:26:31.431Z,94710.31
2019-04-27T10:29:01.436Z,94706.07
2019-04-27T10:31:31.353Z,94702.04
2019-04-27T10:34:00.136Z,94699.65
2019-04-27T10:36:42.462Z,94698.84
2019-04-27T10:39:13.648Z,94688.08
2019-04-27T10:41:46.150Z,94683.79
2019-04-27T10:44:16.282Z,94681.64
2019-04-27T10:46:46.479Z,94682.47
2019-04-27T10:49:16.470Z,94662.62
2019-04-27T10:51:46.881Z,94669.59
2019-04-27T10:54:17.185Z,94657.80
2019-04-27T10:56:47.434Z,94662.00
2019-04-27T10:59:17.726Z,94652.98
2019-04-27T11:01:47.847Z,94654.48
2019-04-27T11:04:46.215Z,94650.17
2019-04-27T11:07:17.999Z,94651.17
2019-04-27T11:09:48.096Z,94646.23
2019-04-27T11:12:18.076Z,94643.42
2019-04-27T11:14:48.005Z,94635.76
2019-04-27T11:17:17.989Z,94638.94
2019-04-27T11:19:47.873Z,94631.80
2019-04-27T11:22:17.890Z,94632.09
2019-04-27T11:24:48.049Z,94636.38
2019-04-27T11:27:18.027Z,94654.31
2019-04-27T11:29:48.060Z,94663.98
2019-04-27T11:32:18.054Z,94665.21
2019-04-27T11:35:05.824Z,94654.77
2019-04-27T11:37:37.360Z,94639.36
2019-04-27T11:40:07.563Z,94623.71
2019-04-27T11:42:37.740Z,94617.00
2019-04-27T11:45:08.301Z,94618.06
2019-04-27T11:47:38.561Z,94620.94
2019-04-27T11:50:09.052Z,94627.68
2019-04-27T11:52:39.148Z,94636.01
2019-04-27T11:55:09.967Z,94640.77
2019-04-27T11:57:39.958Z,94641.91
2019-04-27T12:00:12.441Z,94635.84
2019-04-27T12:02:42.764Z,94629.59
2019-04-27T12:05:13.061Z,94634.98
2019-04-27T12:07:47.519Z,94633.22
2019-04-27T12:10:15.946Z,94626.93
2019-04-27T12:12:46.360Z,94627.77
2019-04-27T12:15:16.855Z,94615.88
2019-04-27T12:17:46.899Z,94619.20
2019-04-27T12:20:17.778Z,94637.80
2019-04-27T12:22:47.089Z,94661.62
2019-04-27T12:25:16.918Z,94693.17
2019-04-27T12:28:11.641Z,94712.20
2019-04-27T12:30:58.886Z,94710.23
2019-04-27T12:33:28.962Z,94695.52
2019-04-27T12:35:58.975Z,94669.78
2019-04-27T12:38:29.074Z,94670.58
2019-04-27T12:41:00.052Z,94699.83
2019-04-27T12:43:29.810Z,94712.35
2019-04-27T12:45:59.603Z,94689.87
2019-04-27T12:48:29.465Z,94709.05
2019-04-27T12:50:59.468Z,94718.55
2019-04-27T12:53:50.807Z,94707.92
2019-04-27T12:56:28.170Z,94706.41
2019-04-27T12:59:02.349Z,94715.91
2019-04-27T13:01:32.169Z,94718.84
2019-04-27T13:04:02.101Z,94693.97
2019-04-27T13:06:32.051Z,94692.20
2019-04-27T13:09:02.005Z,94675.34
2019-04-27T13:11:33.472Z,94681.09
2019-04-27T13:14:03.616Z,94694.73
2019-04-27T13:16:33.403Z,94706.61
2019-04-27T13:19:03.268Z,94702.78
2019-04-27T13:21:33.382Z,94689.72
2019-04-27T13:24:06.325Z,94682.66
2019-04-27T13:26:36.212Z,94678.01
2019-04-27T13:29:06.800Z,94683.77
2019-04-27T13:31:36.963Z,94681.19
2019-04-27T13:34:06.874Z,94675.03
2019-04-27T13:36:36.895Z,94667.90
2019-04-27T13:39:07.342Z,94660.27
2019-04-27T13:41:37.304Z,94658.28
2019-04-27T13:44:07.130Z,94656.03
2019-04-27T13:46:55.974Z,94650.70
2019-04-27T13:49:46.048Z,94653.73
2019-04-27T13:52:29.846Z,94652.80
2019-04-27T13:54:58.771Z,94655.94
2019-04-27T13:57:28.621Z,94656.06
2019-04-27T13:59:58.440Z,94660.73
2019-04-27T14:02:32.244Z,94665.99
2019-04-27T14:05:00.345Z,94663.08
2019-04-27T14:07:30.120Z,94664.81
2019-04-27T14:10:00.086Z,94675.55
2019-04-27T14:12:29.860Z,94683.87
2019-04-27T14:14:59.787Z,94693.88
2019-04-27T14:17:29.548Z,94703.19
2019-04-27T14:19:59.632Z,94716.98
2019-04-27T14:22:31.635Z,94725.72
2019-04-27T14:25:01.817Z,94730.80
2019-04-27T14:27:40.399Z,94713.27
2019-04-27T14:30:09.287Z,94684.58
2019-04-27T14:32:42.435Z,94685.97
2019-04-27T14:35:11.801Z,94690.73
2019-04-27T14:37:41.579Z,94709.38
2019-04-27T14:40:11.949Z,94722.18
2019-04-27T14:42:41.757Z,94720.89
2019-04-27T14:45:11.803Z,94764.18
2019-04-27T14:47:41.805Z,94809.38
2019-04-27T14:50:11.644Z,94840.78
2019-04-27T14:52:41.961Z,94888.35
2019-04-27T14:55:12.189Z,94894.51
2019-04-27T14:57:41.895Z,94894.57
2019-04-27T15:00:13.640Z,94901.97
2019-04-27T15:02:43.493Z,94908.45
2019-04-27T15:05:13.696Z,94916.99
2019-04-27T15:07:44.536Z,94943.30
2019-04-27T15:10:16.212Z,94956.54
2019-04-27T15:12:46.208Z,94970.14
2019-04-27T15:15:16.260Z,94973.08
2019-04-27T15:17:46.171Z,94967.52
2019-04-27T15:20:27.075Z,94955.56
2019-04-27T15:22:56.945Z,94945.38
2019-04-27T15:25:26.547Z,94934.25
2019-04-27T15:28:01.283Z,94935.48
2019-04-27T15:30:48.863Z,94937.64
2019-04-27T15:33:46.663Z,94932.86
2019-04-27T15:36:30.670Z,94922.96
2019-04-27T15:39:03.163Z,94921.69
2019-04-27T15:41:39.551Z,94927.09
2019-04-27T15:44:09.595Z,94919.44
2019-04-27T15:46:39.871Z,94924.22
2019-04-27T15:49:11.591Z,94931.16
2019-04-27T15:51:41.537Z,94928.54
2019-04-27T15:54:11.400Z,94926.42
2019-04-27T15:56:41.505Z,94922.01
2019-04-27T15:59:11.314Z,94919.09
2019-04-27T16:01:41.506Z,94924.54
2019-04-27T16:04:11.589Z,94914.36
2019-04-27T16:06:42.838Z,94906.88
2019-04-27T16:09:24.306Z,94907.77
2019-04-27T16:11:57.656Z,94905.95
2019-04-27T16:14:20.869Z,94904.48
2019-04-27T16:16:51.047Z,94905.29
2019-04-27T16:19:21.162Z,94894.95
2019-04-27T16:21:54.310Z,94888.92
2019-04-27T16:24:23.451Z,94887.44
2019-04-27T16:26:56.004Z,94885.52
2019-04-27T16:29:28.068Z,94865.20
2019-04-27T16:31:58.342Z,94831.30
2019-04-27T16:34:28.812Z,94803.69
2019-04-27T16:36:59.335Z,94801.77
2019-04-27T16:39:29.408Z,94824.44
2019-04-27T16:41:59.792Z,94831.75
2019-04-27T16:44:29.834Z,94834.73
2019-04-27T16:46:59.938Z,94819.81
2019-04-27T16:49:30.019Z,94804.41
2019-04-27T16:52:00.188Z,94803.28
2019-04-27T16:54:30.303Z,94805.09
2019-04-27T16:57:05.149Z,94799.22
2019-04-27T16:59:43.001Z,94803.94
2019-04-27T17:02:03.829Z,94792.15
2019-04-27T17:04:33.717Z,94792.86
2019-04-27T17:07:03.676Z,94786.78
2019-04-27T17:09:36.397Z,94771.59
2019-04-27T17:12:05.661Z,94764.56
2019-04-27T17:14:52.001Z,94758.91
2019-04-27T17:17:31.365Z,94763.97
2019-04-27T17:20:02.831Z,94760.83
2019-04-27T17:22:33.039Z,94761.64
2019-04-27T17:25:02.928Z,94762.73
2019-04-27T17:27:41.375Z,94768.47
2019-04-27T17:30:11.325Z,94775.85
2019-04-27T17:32:55.964Z,94782.38
2019-04-27T17:35:25.751Z,94775.02
2019-04-27T17:37:55.743Z,94778.11
2019-04-27T17:40:29.763Z,94772.69
2019-04-27T17:42:59.730Z,94774.29
2019-04-27T17:45:30.486Z,94779.16
2019-04-27T17:48:06.786Z,94781.10
2019-04-27T17:50:32.556Z,94786.76
2019-04-27T17:53:02.307Z,94795.92
2019-04-27T17:55:32.364Z,94794.72
2019-04-27T17:58:05.145Z,94804.46
2019-04-27T18:00:43.114Z,94809.17
2019-04-27T18:03:08.167Z,94817.16
2019-04-27T18:05:39.024Z,94827.65
2019-04-27T18:08:09.221Z,94835.20
2019-04-27T18:10:40.146Z,94837.03
2019-04-27T18:13:10.513Z,94837.43
2019-04-27T18:15:40.375Z,94847.99
2019-04-27T18:18:22.858Z,94849.43
2019-04-27T18:20:52.249Z,94852.05
2019-04-27T18:23:24.388Z,94859.77
2019-04-27T18:26:03.000Z,94862.75
2019-04-27T18:28:34.137Z,94875.22
2019-04-27T18:31:11.488Z,94869.84
2019-04-27T18:33:42.559Z,94871.68
2019-04-27T18:36:14.293Z,94878.59
2019-04-27T18:38:43.964Z,94881.19
2019-04-27T18:41:14.535Z,94879.59
2019-04-27T18:43:50.837Z,94879.25
2019-04-27T18:46:21.564Z,94875.25
2019-04-27T18:49:08.814Z,94887.47
2019-04-27T18:52:04.138Z,94886.84
2019-04-27T18:54:38.166Z,94880.28
2019-04-27T18:57:06.232Z,94880.70
2019-04-27T18:59:37.971Z,94881.68
2019-04-27T19:02:08.582Z,94882.70
2019-04-27T19:04:38.612Z,94871.09
2019-04-27T19:07:08.857Z,94876.95
2019-04-27T19:09:38.746Z,94873.19
2019-04-27T19:12:08.681Z,94875.31
2019-04-27T19:14:38.771Z,94872.61
2019-04-27T19:17:08.609Z,94866.08
2019-04-27T19:19:38.786Z,94873.33
2019-04-27T19:22:09.074Z,94874.21
2019-04-27T19:24:39.214Z,94874.02
2019-04-27T19:27:39.185Z,94880.23
2019-04-27T19:30:21.382Z,94880.06
2019-04-27T19:32:51.253Z,94883.30
2019-04-27T19:35:20.061Z,94883.66
2019-04-27T19:37:50.020Z,94888.52
2019-04-27T19:40:20.029Z,94894.94
2019-04-27T19:42:50.032Z,94894.58
2019-04-27T19:45:21.150Z,94889.31
2019-04-27T19:47:51.429Z,94888.34
2019-04-27T19:50:21.495Z,94888.03
2019-04-27T19:52:51.678Z,94879.67
2019-04-27T19:55:21.701Z,94882.16
2019-04-27T19:57:51.465Z,94880.80
2019-04-27T20:00:32.858Z,94885.59
2019-04-27T20:03:03.842Z,94883.61
2019-04-27T20:05:34.899Z,94872.33
2019-04-27T20:08:06.215Z,94874.83
2019-04-27T20:10:36.026Z,94881.88
2019-04-27T20:13:06.034Z,94875.84
2019-04-27T20:15:37.171Z,94871.61
2019-04-27T20:18:07.125Z,94878.34
2019-04-27T20:20:37.337Z,94867.88
2019-04-27T20:23:07.341Z,94864.28
2019-04-27T20:25:37.382Z,94860.03
2019-04-27T20:28:07.479Z,94861.02
2019-04-27T20:30:37.386Z,94860.03
2019-04-27T20:33:07.259Z,94857.43
2019-04-27T20:35:37.329Z,94856.62
2019-04-27T20:38:07.450Z,94855.81
2019-04-27T20:40:37.425Z,94853.69
2019-04-27T20:43:07.390Z,94857.43
2019-04-27T20:45:37.658Z,94849.94
2019-04-27T20:48:07.855Z,94849.45
2019-04-27T20:50:37.616Z,94844.36
2019-04-27T20:53:10.618Z,94845.53
2019-04-27T20:55:42.174Z,94842.11
2019-04-27T20:58:12.691Z,94842.59
2019-04-27T21:00:42.920Z,94843.39
2019-04-27T21:03:27.410Z,94842.59
2019-04-27T21:06:14.595Z,94839.67
2019-04-27T21:08:44.775Z,94836.86
2019-04-27T21:11:14.742Z,94836.51
2019-04-27T21:13:44.496Z,94835.75
2019-04-27T21:16:14.449Z,94826.23
2019-04-27T21:18:44.260Z,94838.94
2019-04-27T21:21:14.132Z,94831.58
2019-04-27T21:23:44.360Z,94830.31
2019-04-27T21:26:14.308Z,94835.02
2019-04-27T21:28:44.133Z,94831.77
2019-04-27T21:31:14.653Z,94824.78
2019-04-27T21:33:44.651Z,94824.48
2019-04-27T21:36:14.415Z,94817.32
2019-04-27T21:38:44.301Z,94820.93
2019-04-27T21:41:14.197Z,94826.66
2019-04-27T21:43:43.967Z,94829.14
2019-04-27T21:46:14.034Z,94829.81
2019-04-27T21:48:44.053Z,94823.23
2019-04-27T21:51:14.063Z,94833.38
2019-04-27T21:54:13.256Z,94823.46
2019-04-27T21:56:43.397Z,94822.68
2019-04-27T21:59:13.542Z,94833.48
2019-04-27T22:01:43.890Z,94829.56
2019-04-27T22:04:15.655Z,94831.83
2019-04-27T22:06:45.951Z,94829.39
2019-04-27T22:09:16.509Z,94825.50
2019-04-27T22:11:46.410Z,94828.13
2019-04-27T22:14:16.264Z,94832.86
2019-04-27T22:16:46.119Z,94831.70
2019-04-27T22:19:16.234Z,94831.52
2019-04-27T22:21:46.235Z,94827.63
2019-04-27T22:24:26.621Z,94831.87
2019-04-27T22:26:56.599Z,94835.95
2019-04-27T22:29:26.688Z,94838.73
2019-04-27T22:31:57.894Z,94836.92
2019-04-27T22:34:27.853Z,94838.06
2019-04-27T22:36:57.843Z,94840.84
2019-04-27T22:39:33.477Z,94836.92
2019-04-27T22:42:23.154Z,94832.84
2019-04-27T22:44:56.686Z,94832.51
2019-04-27T22:47:26.561Z,94828.13
2019-04-27T22:49:56.463Z,94824.04
2019-04-27T22:52:26.550Z,94822.39
2019-04-27T22:54:56.775Z,94819.47
2019-04-27T22:57:38.488Z,94819.78
2019-04-27T23:00:31.155Z,94816.19
2019-04-27T23:03:03.202Z,94819.62
2019-04-27T23:05:34.487Z,94818.31
2019-04-27T23:08:04.577Z,94821.56
2019-04-27T23:10:34.955Z,94819.30
2019-04-27T23:13:05.077Z,94823.05
2019-04-27T23:15:41.149Z,94816.34
2019-04-27T23:18:11.506Z,94819.94
2019-04-27T23:20:42.548Z,94814.23
2019-04-27T23:23:12.603Z,94816.83
2019-04-27T23:25:42.725Z,94817.81
2019-04-27T23:28:12.839Z,94813.58
2019-04-27T23:31:02.259Z,94817.18
2019-04-27T23:33:31.825Z,94818.95
2019-04-27T23:36:01.755Z,94819.77
2019-04-27T23:38:31.790Z,94813.58
2019-04-27T23:41:01.954Z,94810.33
2019-04-27T23:43:32.280Z,94813.08
2019-04-27T23:46:02.380Z,94816.19
2019-04-27T23:48:32.277Z,94820.44
2019-04-27T23:51:12.792Z,94816.02
2019-04-27T23:53:42.643Z,94811.13
2019-04-27T23:56:12.912Z,94808.83
2019-04-27T23:58:43.177Z,94811.94
